Flag for Greece

Past Weather in 40°16'05.1"N, 22°35'43.0"E, Greece — Yesterday and Last 2 Weeks

Currently: 97 °F. Passing clouds. (Weather station: Thessaloniki Airport, Greece). See more current weather

Past Weather in 40°16'05.1"N, 22°35'43.0"E — Graph

°F

40°16'05.1"N, 22°35'43.0"E Temperature Yesterday

Maximum temperature yesterday: 99 °F (at 4:50 pm)
Minimum temperature yesterday: 73 °F (at 5:20 am)
Average temperature yesterday: 86 °F

High & Low Weather Summary for the Past Weeks

 TemperatureHumidityPressure
High100 °F (Jun 12, 5:20 pm)84% (Jun 12, 9:20 pm)30.07 "Hg (Jun 12, 9:20 pm)
Low64 °F (Jun 16, 5:50 am)21% (Jun 12, 5:20 pm)29.74 "Hg (Jun 11, 6:20 pm)
Average82 °F53%29.90 "Hg
* Reported Jun 6 3:20 pm — Jun 21 3:50 pm, 40°16'05.1"N, 22°35'43.0"E. Weather by CustomWeather, © 2024

Note: Actual official high and low records may vary slightly from our data, if they occured in-between our weather recording intervals... More about our weather records

40°16'05.1"N, 22°35'43.0"E Weather History for the Previous 24 Hours

Scroll right to see more
 ConditionsComfort  
Time TempWeatherWind HumidityBarometerVisibility
3:50 pm
Fri, Jun 21
97 °FPassing clouds.13 mph30%29.95 "HgN/A
3:20 pm97 °FPassing clouds.13 mph30%29.95 "HgN/A
2:50 pm97 °FPassing clouds.13 mph30%29.95 "HgN/A
2:20 pm97 °FSunny.13 mph30%29.98 "Hg10 mi
1:50 pm97 °FSunny.13 mph30%29.98 "Hg10 mi
1:20 pm97 °FSunny.13 mph30%29.98 "Hg10 mi
12:50 pm97 °FSunny.13 mph30%29.98 "Hg10 mi
12:20 pm93 °FSunny.8 mph41%29.98 "Hg10 mi
11:50 am90 °FPassing clouds.8 mph52%30.01 "HgN/A
11:20 am86 °FSunny.8 mph62%30.01 "Hg10 mi
10:50 am86 °FSunny.7 mph62%30.01 "Hg10 mi
10:20 am84 °FSunny.7 mph62%30.01 "Hg10 mi
9:50 am82 °FSunny.7 mph66%30.01 "Hg10 mi
9:20 am84 °FSunny.6 mph62%30.01 "Hg10 mi
8:20 am82 °FSunny.2 mph66%30.01 "Hg10 mi
7:50 am81 °FSunny.2 mph66%29.98 "Hg10 mi
7:20 am79 °FSunny.3 mph61%29.98 "Hg10 mi
6:50 am75 °FSunny.3 mph65%29.98 "Hg10 mi
6:20 am75 °FSunny.3 mph65%29.98 "Hg10 mi
5:50 am77 °FClear.2 mph69%29.98 "Hg10 mi
5:20 am77 °FClear.2 mph65%29.98 "Hg10 mi
4:50 am79 °FClear.3 mph61%29.98 "Hg10 mi
4:20 am79 °FClear.2 mph65%29.98 "Hg10 mi
3:50 am77 °FClear.3 mph65%29.98 "Hg10 mi
3:20 am79 °FClear.3 mph65%29.98 "Hg10 mi
2:50 am81 °FClear.3 mph70%29.98 "Hg10 mi
2:20 am81 °FClear.3 mph70%29.98 "Hg10 mi
1:50 am84 °FClear.3 mph66%29.98 "Hg10 mi
1:20 am84 °FPassing clouds.3 mph70%29.98 "HgN/A
12:50 am84 °FPassing clouds.3 mph66%29.98 "HgN/A
12:20 am84 °FPassing clouds.No wind55%29.98 "HgN/A
11:50 pm
Thu, Jun 20
86 °FPassing clouds.2 mph52%29.98 "HgN/A
11:20 pm86 °FPassing clouds.3 mph46%29.95 "HgN/A
10:50 pm90 °FPassing clouds.3 mph38%29.95 "HgN/A
10:20 pm90 °FPassing clouds.7 mph38%29.95 "HgN/A
9:50 pm88 °FClear.3 mph40%29.92 "Hg10 mi
9:20 pm91 °FClear.8 mph36%29.92 "Hg10 mi
8:50 pm93 °FSunny.9 mph34%29.92 "Hg10 mi
8:20 pm95 °FSunny.9 mph30%29.92 "Hg10 mi
7:50 pm95 °FSunny.12 mph30%29.92 "Hg10 mi
7:20 pm95 °FSunny.13 mph30%29.92 "Hg10 mi
6:50 pm97 °FSunny.10 mph28%29.89 "Hg10 mi
6:20 pm97 °FPassing clouds.9 mph27%29.89 "HgN/A
5:50 pm99 °FPassing clouds.12 mph27%29.89 "HgN/A
5:20 pm99 °FPassing clouds.8 mph27%29.92 "HgN/A
Weather by CustomWeather, © 2024

See weather overview